Time;durP1;ratioP1;P1;durP2;ratioP2;P2;SDS_P1;SDS_P2;PMS_P1;PMS_P2;Temp;Humidity;BMP_temperature;BMP_pressure;BME280_temperature;BME280_humidity;BME280_pressure;Samples;Min_cycle;Max_cycle;Signal;HPM_P1;HPM_P2
2023/01/13 00:01:57;;;;;;;;;;;17.80;58.00;;;;;;5139159;27;20027;-74
2023/01/13 00:04:22;;;;;;;;;;;17.90;58.00;;;;;;5139247;27;20366;-74
2023/01/13 00:06:48;;;;;;;;;;;17.80;57.90;;;;;;5121815;27;20365;-74
2023/01/13 00:09:13;;;;;;;;;;;17.80;57.90;;;;;;5173357;27;20388;-74
2023/01/13 00:11:39;;;;;;;;;;;17.80;57.80;;;;;;5157249;27;20365;-74
2023/01/13 00:14:05;;;;;;;;;;;17.80;57.80;;;;;;5157241;27;20129;-74
2023/01/13 00:16:30;;;;;;;;;;;17.80;57.70;;;;;;5138939;27;20021;-74
2023/01/13 00:18:56;;;;;;;;;;;17.70;57.80;;;;;;5138516;27;20404;-75
2023/01/13 00:21:23;;;;;;;;;;;17.70;57.50;;;;;;5138481;27;19919;-75
2023/01/13 00:23:52;;;;;;;;;;;17.80;57.50;;;;;;5156994;27;19919;-73
2023/01/13 00:26:20;;;;;;;;;;;17.70;57.50;;;;;;5138692;27;19919;-74
2023/01/13 00:28:46;;;;;;;;;;;17.70;57.60;;;;;;5138409;27;20289;-74
2023/01/13 00:31:13;;;;;;;;;;;17.70;57.50;;;;;;5156901;27;20014;-74
2023/01/13 00:33:39;;;;;;;;;;;17.70;57.50;;;;;;5154949;27;20261;-74
2023/01/13 00:36:05;;;;;;;;;;;17.70;57.50;;;;;;5177600;27;19926;-74
2023/01/13 00:38:32;;;;;;;;;;;17.70;57.40;;;;;;5159341;27;19922;-73
2023/01/13 00:40:58;;;;;;;;;;;17.70;57.40;;;;;;5177638;27;19919;-75
2023/01/13 00:43:24;;;;;;;;;;;17.70;57.40;;;;;;5159244;27;19925;-74
2023/01/13 00:45:51;;;;;;;;;;;17.70;57.40;;;;;;5158761;27;19962;-74
2023/01/13 00:48:18;;;;;;;;;;;17.70;57.40;;;;;;5158729;27;19988;-74
2023/01/13 00:50:53;;;;;;;;;;;17.60;57.40;;;;;;5177571;27;19922;-74
2023/01/13 00:53:19;;;;;;;;;;;17.60;57.40;;;;;;5158594;27;20468;-74
2023/01/13 00:55:44;;;;;;;;;;;17.60;57.20;;;;;;5158717;27;19962;-74
2023/01/13 00:58:10;;;;;;;;;;;17.60;57.20;;;;;;5158559;27;20383;-74
2023/01/13 01:00:35;;;;;;;;;;;17.60;57.20;;;;;;5158451;27;19923;-74
2023/01/13 01:03:01;;;;;;;;;;;17.60;57.30;;;;;;5176979;27;19922;-74
2023/01/13 01:05:26;;;;;;;;;;;17.60;57.30;;;;;;5177523;27;19919;-74
2023/01/13 01:07:52;;;;;;;;;;;17.60;57.30;;;;;;5176844;27;20009;-74
2023/01/13 01:10:17;;;;;;;;;;;17.60;57.40;;;;;;5158586;27;20288;-75
2023/01/13 01:12:43;;;;;;;;;;;17.60;57.40;;;;;;5158193;27;19919;-74
2023/01/13 01:15:09;;;;;;;;;;;17.60;57.40;;;;;;5158214;27;19918;-74
2023/01/13 01:17:38;;;;;;;;;;;17.50;57.40;;;;;;5158282;27;19919;-74
2023/01/13 01:20:04;;;;;;;;;;;17.50;57.40;;;;;;5158840;27;19965;-74
2023/01/13 01:22:29;;;;;;;;;;;17.50;57.50;;;;;;5158329;27;19961;-74
2023/01/13 01:24:55;;;;;;;;;;;17.50;57.50;;;;;;5176685;27;19941;-74
2023/01/13 01:27:20;;;;;;;;;;;17.50;57.50;;;;;;5157891;27;19927;-74
2023/01/13 01:29:46;;;;;;;;;;;17.60;57.40;;;;;;5158249;27;19966;-74
2023/01/13 01:32:11;;;;;;;;;;;17.90;57.00;;;;;;5153621;27;19963;-74
2023/01/13 01:34:38;;;;;;;;;;;18.30;56.30;;;;;;5136956;27;19970;-74
2023/01/13 01:37:04;;;;;;;;;;;18.60;55.50;;;;;;5137536;27;19919;-74
2023/01/13 01:39:29;;;;;;;;;;;19.10;54.40;;;;;;5137267;27;19925;-74
2023/01/13 01:47:22;;;;;;;;;;;21.30;49.60;;;;;;5110245;27;19912;-72
2023/01/13 01:49:48;;;;;;;;;;;22.00;48.00;;;;;;5143577;27;19920;-73
2023/01/13 01:52:16;;;;;;;;;;;22.50;47.00;;;;;;5110405;28;20274;-72
2023/01/13 01:54:46;;;;;;;;;;;22.90;46.00;;;;;;5108925;28;20007;-72
2023/01/13 01:57:14;;;;;;;;;;;23.20;45.30;;;;;;5109198;28;19946;-72
2023/01/13 01:59:40;;;;;;;;;;;23.50;44.60;;;;;;5108989;28;20287;-72
2023/01/13 02:02:05;;;;;;;;;;;23.70;44.10;;;;;;5109085;28;19971;-72
2023/01/13 02:04:33;;;;;;;;;;;24.00;43.80;;;;;;5110006;28;19962;-72
2023/01/13 02:07:00;;;;;;;;;;;24.10;43.40;;;;;;5108707;28;19931;-72
2023/01/13 02:09:25;;;;;;;;;;;24.20;43.10;;;;;;5108923;28;19920;-73
2023/01/13 02:14:37;;;;;;;;;;;24.30;42.80;;;;;;5108579;28;19920;-72
2023/01/13 02:25:47;;;;;;;;;;;24.50;42.50;;;;;;5065779;27;1906272;-72
2023/01/13 02:44:44;;;;;;;;;;;23.60;43.60;;;;;;5129325;28;19976;-72
2023/01/13 02:47:25;;;;;;;;;;;23.50;43.80;;;;;;5129659;28;19926;-73
2023/01/13 02:49:54;;;;;;;;;;;23.40;44.00;;;;;;5129927;28;19982;-72
2023/01/13 02:52:31;;;;;;;;;;;23.30;44.20;;;;;;5129544;28;19949;-73
2023/01/13 02:55:00;;;;;;;;;;;23.10;44.20;;;;;;5129281;28;19919;-73
2023/01/13 02:57:27;;;;;;;;;;;23.10;44.40;;;;;;5129096;28;20263;-72
2023/01/13 02:59:54;;;;;;;;;;;23.00;44.40;;;;;;5129093;28;20077;-73
2023/01/13 03:02:21;;;;;;;;;;;23.00;44.40;;;;;;5130351;27;20439;-72
2023/01/13 03:04:49;;;;;;;;;;;23.10;44.50;;;;;;5129063;28;19972;-74
2023/01/13 03:07:23;;;;;;;;;;;23.10;44.40;;;;;;5130440;27;19967;-73
2023/01/13 03:09:54;;;;;;;;;;;23.10;44.30;;;;;;5129020;28;19946;-72
2023/01/13 03:15:21;;;;;;;;;;;23.20;44.00;;;;;;5130690;27;19915;-72
2023/01/13 03:17:54;;;;;;;;;;;23.20;43.80;;;;;;5129432;28;19926;-72
2023/01/13 03:20:25;;;;;;;;;;;23.20;43.70;;;;;;5129503;28;19919;-72
2023/01/13 03:22:55;;;;;;;;;;;23.30;43.70;;;;;;5129632;28;20369;-73
2023/01/13 03:28:05;;;;;;;;;;;23.40;43.50;;;;;;5130865;27;20327;-73
2023/01/13 03:30:34;;;;;;;;;;;23.40;43.30;;;;;;5129515;28;19920;-72
2023/01/13 03:33:16;;;;;;;;;;;23.50;43.30;;;;;;5129607;28;20381;-72
2023/01/13 03:35:44;;;;;;;;;;;23.50;43.10;;;;;;5129694;28;19967;-72
2023/01/13 03:38:13;;;;;;;;;;;23.50;43.10;;;;;;5163912;27;19920;-72
2023/01/13 03:40:42;;;;;;;;;;;23.50;43.20;;;;;;5129284;28;19920;-72
2023/01/13 03:45:58;;;;;;;;;;;23.50;43.30;;;;;;5129154;28;20022;-72
2023/01/13 03:48:25;;;;;;;;;;;23.40;43.30;;;;;;5129347;28;19931;-72
2023/01/13 03:50:52;;;;;;;;;;;23.40;43.30;;;;;;5129338;28;19920;-72
2023/01/13 03:53:25;;;;;;;;;;;23.40;43.40;;;;;;5128980;28;20374;-73
2023/01/13 03:55:54;;;;;;;;;;;23.30;43.40;;;;;;5164004;27;19982;-73
2023/01/13 03:58:22;;;;;;;;;;;23.30;43.50;;;;;;5129226;28;19927;-72
2023/01/13 04:03:32;;;;;;;;;;;23.20;43.50;;;;;;5110194;27;20285;-72
2023/01/13 04:06:01;;;;;;;;;;;23.20;43.50;;;;;;5110410;28;19920;-73
2023/01/13 04:08:27;;;;;;;;;;;23.20;43.60;;;;;;5108944;28;20429;-72
2023/01/13 04:10:57;;;;;;;;;;;23.10;43.60;;;;;;5108844;28;20015;-72
2023/01/13 04:13:25;;;;;;;;;;;23.10;43.60;;;;;;5108831;28;19920;-72
2023/01/13 04:16:02;;;;;;;;;;;23.10;43.60;;;;;;5109158;28;19969;-72
2023/01/13 04:18:30;;;;;;;;;;;23.10;43.70;;;;;;5108919;28;19945;-72
2023/01/13 04:20:57;;;;;;;;;;;23.10;43.70;;;;;;5108721;28;19945;-72
2023/01/13 04:23:23;;;;;;;;;;;23.00;43.70;;;;;;5110028;28;20302;-72
2023/01/13 04:25:48;;;;;;;;;;;23.00;43.70;;;;;;5109895;28;20336;-72
2023/01/13 04:28:14;;;;;;;;;;;23.00;43.70;;;;;;5108767;28;19927;-73
2023/01/13 04:30:41;;;;;;;;;;;23.00;43.70;;;;;;5142871;27;20317;-73
2023/01/13 04:33:07;;;;;;;;;;;23.00;43.70;;;;;;5109636;28;19920;-73
2023/01/13 04:35:33;;;;;;;;;;;23.00;43.70;;;;;;5108687;28;19920;-73
2023/01/13 04:38:00;;;;;;;;;;;23.00;43.60;;;;;;5108636;28;19927;-72
2023/01/13 04:40:25;;;;;;;;;;;23.00;43.60;;;;;;5108333;28;19927;-72
2023/01/13 04:42:51;;;;;;;;;;;23.00;43.50;;;;;;5108235;28;19928;-72
2023/01/13 04:45:16;;;;;;;;;;;23.00;43.50;;;;;;5108483;28;20431;-72
2023/01/13 04:47:42;;;;;;;;;;;23.00;43.40;;;;;;5108066;28;20015;-72
2023/01/13 04:50:08;;;;;;;;;;;23.00;43.40;;;;;;5108051;28;20014;-72
2023/01/13 04:52:34;;;;;;;;;;;23.10;43.30;;;;;;5108047;28;19924;-72
2023/01/13 04:54:59;;;;;;;;;;;23.00;43.30;;;;;;5107909;28;19924;-72
2023/01/13 04:57:25;;;;;;;;;;;23.00;43.20;;;;;;5108017;28;19927;-72
2023/01/13 04:59:51;;;;;;;;;;;23.10;43.30;;;;;;5109133;28;19920;-72
2023/01/13 05:02:18;;;;;;;;;;;23.10;43.20;;;;;;5110814;28;19924;-72
2023/01/13 05:04:45;;;;;;;;;;;23.10;43.20;;;;;;5129489;28;19966;-72
2023/01/13 05:07:10;;;;;;;;;;;23.10;43.20;;;;;;5129750;28;20297;-72
2023/01/13 05:09:36;;;;;;;;;;;23.10;43.10;;;;;;5145598;27;19919;-72
2023/01/13 05:17:35;;;;;;;;;;;23.20;42.90;;;;;;5097850;28;20115;-73
2023/01/13 05:20:01;;;;;;;;;;;23.30;42.80;;;;;;5131802;27;19920;-72
2023/01/13 05:25:23;;;;;;;;;;;23.40;42.50;;;;;;5097041;28;19919;-72
2023/01/13 05:27:50;;;;;;;;;;;23.40;42.30;;;;;;5115828;28;19979;-72
2023/01/13 05:30:16;;;;;;;;;;;23.50;42.20;;;;;;5097508;28;20289;-72
2023/01/13 05:32:42;;;;;;;;;;;23.50;42.10;;;;;;5131519;27;19927;-72
2023/01/13 05:35:07;;;;;;;;;;;23.50;42.00;;;;;;5097064;28;20295;-72
2023/01/13 05:37:33;;;;;;;;;;;23.60;41.90;;;;;;5097073;28;19919;-72
2023/01/13 05:45:30;;;;;;;;;;;23.60;41.80;;;;;;5096634;28;20375;-73
2023/01/13 05:47:56;;;;;;;;;;;23.60;41.80;;;;;;5096819;28;20417;-73
2023/01/13 05:50:22;;;;;;;;;;;23.50;41.70;;;;;;5131210;27;19927;-72
2023/01/13 05:52:47;;;;;;;;;;;23.50;42.50;;;;;;5096764;28;20290;-74
2023/01/13 05:55:13;;;;;;;;;;;23.50;41.70;;;;;;5096728;28;19919;-73
2023/01/13 05:57:39;;;;;;;;;;;23.50;41.60;;;;;;5097140;28;19920;-73
2023/01/13 06:00:05;;;;;;;;;;;23.50;41.60;;;;;;5114892;28;20293;-73
2023/01/13 06:02:30;;;;;;;;;;;23.50;41.50;;;;;;5096270;28;19928;-73
2023/01/13 06:04:56;;;;;;;;;;;23.50;41.60;;;;;;5079604;28;19951;-73
2023/01/13 06:07:21;;;;;;;;;;;23.40;41.50;;;;;;5096601;28;19920;-72
2023/01/13 06:09:47;;;;;;;;;;;23.40;41.60;;;;;;5096422;28;19920;-73
2023/01/13 06:12:13;;;;;;;;;;;23.40;41.60;;;;;;5096436;28;19919;-73
2023/01/13 06:14:39;;;;;;;;;;;23.40;41.50;;;;;;5096613;28;19981;-73
2023/01/13 06:17:06;;;;;;;;;;;23.40;41.50;;;;;;5096572;28;19921;-73
2023/01/13 06:19:31;;;;;;;;;;;23.40;41.60;;;;;;5096273;28;19926;-78
2023/01/13 06:21:57;;;;;;;;;;;23.30;41.50;;;;;;5096240;28;19928;-72
2023/01/13 06:24:22;;;;;;;;;;;23.30;41.60;;;;;;5095731;28;19924;-73
2023/01/13 06:26:51;;;;;;;;;;;23.30;41.60;;;;;;5095835;28;19924;-73
2023/01/13 06:29:16;;;;;;;;;;;23.30;41.50;;;;;;5114298;28;19920;-73
2023/01/13 06:31:42;;;;;;;;;;;23.30;41.50;;;;;;5095939;28;19920;-72
2023/01/13 06:34:10;;;;;;;;;;;23.30;41.40;;;;;;5096254;28;20011;-73
2023/01/13 06:36:38;;;;;;;;;;;23.30;41.30;;;;;;5095878;28;19920;-72
2023/01/13 06:39:05;;;;;;;;;;;23.40;41.30;;;;;;5113991;28;19919;-73
2023/01/13 06:44:18;;;;;;;;;;;23.40;41.30;;;;;;5095826;28;19959;-73
2023/01/13 06:46:47;;;;;;;;;;;23.40;41.20;;;;;;5113088;28;20349;-68
2023/01/13 06:49:12;;;;;;;;;;;23.30;41.00;;;;;;5095641;28;19945;-69
2023/01/13 06:51:38;;;;;;;;;;;23.20;41.10;;;;;;5113795;28;19924;-68
2023/01/13 06:54:03;;;;;;;;;;;22.90;41.20;;;;;;5118587;27;19969;-68
2023/01/13 06:56:29;;;;;;;;;;;22.80;41.60;;;;;;5125525;27;20343;-70
2023/01/13 06:58:54;;;;;;;;;;;22.80;41.70;;;;;;5111882;28;20349;-67
2023/01/13 07:01:20;;;;;;;;;;;22.70;41.60;;;;;;5112333;28;19923;-69
2023/01/13 07:03:45;;;;;;;;;;;22.80;41.50;;;;;;5094355;28;19947;-68
2023/01/13 07:06:11;;;;;;;;;;;22.90;41.20;;;;;;5090515;28;19950;-70
2023/01/13 07:08:36;;;;;;;;;;;23.10;41.10;;;;;;5114350;27;19920;-68
2023/01/13 07:11:02;;;;;;;;;;;23.20;40.80;;;;;;5117640;27;20282;-68
2023/01/13 07:16:13;;;;;;;;;;;23.70;39.70;;;;;;5092719;28;20462;-68
2023/01/13 07:18:39;;;;;;;;;;;23.80;39.30;;;;;;5086766;28;19928;-67
2023/01/13 07:21:07;;;;;;;;;;;23.90;38.90;;;;;;5066127;28;19928;-68
2023/01/13 07:23:33;;;;;;;;;;;24.00;38.80;;;;;;5105649;27;19939;-67
2023/01/13 07:25:59;;;;;;;;;;;24.00;38.80;;;;;;5095531;28;19966;-68
2023/01/13 07:28:25;;;;;;;;;;;24.10;38.40;;;;;;5070045;28;19967;-66
2023/01/13 07:30:51;;;;;;;;;;;24.20;38.10;;;;;;5078948;28;19924;-67
2023/01/13 07:33:17;;;;;;;;;;;24.20;38.10;;;;;;5092310;28;19927;-67
2023/01/13 07:35:43;;;;;;;;;;;24.10;38.00;;;;;;5075210;28;19924;-67
2023/01/13 07:38:09;;;;;;;;;;;24.10;38.10;;;;;;5093093;28;19920;-67
2023/01/13 07:40:38;;;;;;;;;;;24.10;38.00;;;;;;5073735;28;19919;-67
2023/01/13 07:43:35;;;;;;;;;;;24.10;38.00;;;;;;5074226;28;19971;-67
2023/01/13 07:45:54;;;;;;;;;;;24.00;38.40;;;;;;5074766;28;19979;-68
2023/01/13 07:48:19;;;;;;;;;;;23.80;38.40;;;;;;5076053;28;19923;-68
2023/01/13 07:50:45;;;;;;;;;;;23.60;38.50;;;;;;5077541;28;20278;-67
2023/01/13 07:53:10;;;;;;;;;;;23.50;38.90;;;;;;5076330;28;20363;-68
2023/01/13 07:55:40;;;;;;;;;;;23.40;39.20;;;;;;5075716;28;19920;-67
2023/01/13 07:58:08;;;;;;;;;;;23.40;39.30;;;;;;5093823;28;19981;-67
2023/01/13 08:00:34;;;;;;;;;;;23.40;39.60;;;;;;5094028;28;19927;-71
2023/01/13 08:03:03;;;;;;;;;;;23.40;39.80;;;;;;5074835;28;19932;-71
2023/01/13 08:05:29;;;;;;;;;;;23.40;39.90;;;;;;5078878;28;20328;-71
2023/01/13 08:07:54;;;;;;;;;;;23.60;39.80;;;;;;5096761;28;19927;-71
2023/01/13 08:10:20;;;;;;;;;;;23.80;39.50;;;;;;5093610;28;19924;-70
2023/01/13 08:13:17;;;;;;;;;;;24.00;39.20;;;;;;5095711;28;19927;-71
2023/01/13 08:15:31;;;;;;;;;;;24.00;39.10;;;;;;5086780;28;19953;-74
2023/01/13 08:17:58;;;;;;;;;;;24.10;39.00;;;;;;5077016;28;19920;-72
2023/01/13 08:20:23;;;;;;;;;;;23.90;39.10;;;;;;5094191;28;19923;-71
2023/01/13 08:22:49;;;;;;;;;;;23.70;39.50;;;;;;5079561;28;20311;-70
2023/01/13 08:25:16;;;;;;;;;;;23.30;40.00;;;;;;5089449;28;19977;-71
2023/01/13 08:27:41;;;;;;;;;;;23.10;40.60;;;;;;5061873;28;20339;-72
2023/01/13 08:30:08;;;;;;;;;;;22.90;41.00;;;;;;5066986;28;19946;-69
2023/01/13 08:32:33;;;;;;;;;;;22.90;41.20;;;;;;5068625;28;20456;-72
2023/01/13 08:34:59;;;;;;;;;;;22.80;41.40;;;;;;5068006;28;20019;-73
2023/01/13 08:37:24;;;;;;;;;;;22.70;41.60;;;;;;5086875;28;19924;-73
2023/01/13 08:39:50;;;;;;;;;;;22.80;41.70;;;;;;5088888;28;19927;-75
2023/01/13 08:42:16;;;;;;;;;;;22.90;41.50;;;;;;5070456;28;19928;-75
2023/01/13 08:44:41;;;;;;;;;;;23.10;41.30;;;;;;5070830;28;20362;-74
2023/01/13 08:47:07;;;;;;;;;;;23.20;41.10;;;;;;5089791;28;20014;-73
2023/01/13 08:49:32;;;;;;;;;;;23.30;41.00;;;;;;5093715;28;19959;-71
2023/01/13 08:51:58;;;;;;;;;;;23.40;41.00;;;;;;5072981;28;19931;-74
2023/01/13 08:54:23;;;;;;;;;;;23.50;41.00;;;;;;5079954;28;20370;-70
2023/01/13 08:56:49;;;;;;;;;;;23.50;41.00;;;;;;5074583;28;19928;-70
2023/01/13 08:59:16;;;;;;;;;;;23.40;41.00;;;;;;5075626;28;19924;-74
2023/01/13 09:01:41;;;;;;;;;;;23.40;41.20;;;;;;5071651;28;20424;-72
2023/01/13 09:04:13;;;;;;;;;;;23.40;41.20;;;;;;5074745;28;20177;-72
2023/01/13 09:06:42;;;;;;;;;;;23.40;41.20;;;;;;5093821;28;20399;-72
2023/01/13 09:09:07;;;;;;;;;;;23.30;41.30;;;;;;5095167;28;19993;-72
2023/01/13 09:14:21;;;;;;;;;;;23.20;41.50;;;;;;5075194;28;19935;-73
2023/01/13 09:16:46;;;;;;;;;;;23.20;41.60;;;;;;5097069;28;19920;-71
2023/01/13 09:19:12;;;;;;;;;;;23.20;41.70;;;;;;5092507;28;20315;-71
2023/01/13 09:21:38;;;;;;;;;;;23.20;41.90;;;;;;5094153;28;20367;-71
2023/01/13 09:24:03;;;;;;;;;;;23.10;41.90;;;;;;5096767;28;19923;-71
2023/01/13 09:26:29;;;;;;;;;;;23.00;42.00;;;;;;5097390;28;20002;-71
2023/01/13 09:28:54;;;;;;;;;;;22.90;42.40;;;;;;5100164;28;19989;-70
2023/01/13 09:31:20;;;;;;;;;;;22.80;42.60;;;;;;5096204;28;19977;-70
2023/01/13 09:36:34;;;;;;;;;;;22.70;43.00;;;;;;5097296;28;19945;-69
2023/01/13 09:38:59;;;;;;;;;;;22.70;43.00;;;;;;5096439;28;19923;-70
2023/01/13 09:44:16;;;;;;;;;;;22.40;42.50;;;;;;5096922;28;19924;-70
2023/01/13 09:46:46;;;;;;;;;;;22.20;42.70;;;;;;5096667;28;20011;-70
2023/01/13 09:49:21;;;;;;;;;;;22.10;42.80;;;;;;5095719;28;20572;-70
2023/01/13 09:52:03;;;;;;;;;;;22.00;43.00;;;;;;5093486;28;19945;-70
2023/01/13 09:54:32;;;;;;;;;;;22.10;43.20;;;;;;5096834;28;20025;-77
2023/01/13 09:56:58;;;;;;;;;;;22.10;43.30;;;;;;5078277;28;19927;-71
2023/01/13 09:59:26;;;;;;;;;;;22.40;43.10;;;;;;5092081;28;19953;-71
2023/01/13 10:04:32;;;;;;;;;;;22.80;42.60;;;;;;5075203;27;1938609;-70
2023/01/13 10:07:00;;;;;;;;;;;23.10;42.30;;;;;;5117297;27;20271;-73
2023/01/13 10:14:59;;;;;;;;;;;23.30;41.50;;;;;;5048616;28;19929;-72
2023/01/13 10:17:34;;;;;;;;;;;23.10;41.50;;;;;;5027571;28;19931;-70
2023/01/13 10:22:58;;;;;;;;;;;22.80;42.30;;;;;;5084066;27;19946;-72
2023/01/13 10:25:44;;;;;;;;;;;22.70;42.30;;;;;;5087802;28;19931;-71
2023/01/13 10:28:11;;;;;;;;;;;22.70;42.40;;;;;;5088837;28;19958;-70
2023/01/13 10:30:39;;;;;;;;;;;22.60;42.40;;;;;;5083192;28;20038;-69
2023/01/13 10:33:13;;;;;;;;;;;22.70;42.50;;;;;;5086397;28;19924;-71
2023/01/13 10:35:59;;;;;;;;;;;22.80;42.40;;;;;;5085485;28;19924;-70
2023/01/13 10:38:26;;;;;;;;;;;22.90;42.20;;;;;;5086152;28;20380;-70
2023/01/13 10:40:53;;;;;;;;;;;22.80;42.00;;;;;;5089436;28;19932;-70
2023/01/13 10:43:19;;;;;;;;;;;22.80;42.20;;;;;;5085820;28;19930;-68
2023/01/13 10:46:05;;;;;;;;;;;22.90;42.20;;;;;;5088223;28;19928;-72
2023/01/13 10:48:32;;;;;;;;;;;22.90;42.00;;;;;;5119527;27;19935;-69
2023/01/13 10:51:08;;;;;;;;;;;22.90;42.10;;;;;;5085749;28;19931;-69
2023/01/13 10:53:43;;;;;;;;;;;23.00;42.10;;;;;;5085789;28;19927;-70
2023/01/13 10:56:14;;;;;;;;;;;23.20;41.90;;;;;;5088595;28;19924;-71
2023/01/13 10:58:40;;;;;;;;;;;23.30;41.70;;;;;;5088424;28;19933;-70
2023/01/13 11:01:06;;;;;;;;;;;23.40;41.50;;;;;;5085409;28;19936;-71
2023/01/13 11:03:35;;;;;;;;;;;23.40;41.50;;;;;;5086091;28;20015;-71
2023/01/13 11:06:01;;;;;;;;;;;23.40;41.40;;;;;;5086192;28;19920;-73
2023/01/13 11:08:27;;;;;;;;;;;23.40;41.30;;;;;;5086455;28;19977;-71
2023/01/13 11:10:54;;;;;;;;;;;23.40;41.40;;;;;;5089652;28;19951;-72
2023/01/13 11:16:17;;;;;;;;;;;23.20;41.60;;;;;;5075194;27;20396;-69
2023/01/13 11:19:10;;;;;;;;;;;23.20;41.80;;;;;;5067475;28;19928;-69
2023/01/13 11:21:37;;;;;;;;;;;22.90;42.10;;;;;;5053276;28;20444;-69
2023/01/13 11:24:09;;;;;;;;;;;22.80;42.60;;;;;;5072944;28;19924;-70
2023/01/13 11:26:54;;;;;;;;;;;22.70;42.80;;;;;;5052292;28;19965;-70
2023/01/13 11:29:26;;;;;;;;;;;22.70;42.90;;;;;;5053652;28;20406;-69
2023/01/13 11:31:54;;;;;;;;;;;22.80;43.00;;;;;;5057665;28;20490;-70
2023/01/13 11:34:28;;;;;;;;;;;22.70;42.90;;;;;;5059669;28;19928;-68
2023/01/13 11:36:56;;;;;;;;;;;22.80;42.90;;;;;;5070571;28;19930;-69
2023/01/13 11:39:41;;;;;;;;;;;22.80;42.70;;;;;;5056421;28;19939;-69
2023/01/13 11:42:26;;;;;;;;;;;22.90;42.70;;;;;;5056424;28;19925;-68
2023/01/13 11:47:47;;;;;;;;;;;22.90;42.50;;;;;;5077703;27;19920;-70
2023/01/13 11:50:17;;;;;;;;;;;22.70;42.60;;;;;;5099459;28;20754;-69
2023/01/13 11:58:52;;;;;;;;;;;22.50;43.30;;;;;;5090795;27;19953;-72
2023/01/13 12:04:09;;;;;;;;;;;22.50;43.50;;;;;;5074701;27;19930;-69
2023/01/13 12:06:36;;;;;;;;;;;22.50;43.80;;;;;;5067425;28;20291;-71
2023/01/13 12:14:48;;;;;;;;;;;22.70;43.80;;;;;;5135524;27;19930;-68
2023/01/13 12:17:20;;;;;;;;;;;22.70;43.80;;;;;;5126754;27;19928;-70
2023/01/13 12:19:50;;;;;;;;;;;22.80;43.80;;;;;;5121183;27;20861;-68
2023/01/13 12:27:44;;;;;;;;;;;23.20;43.30;;;;;;5087503;27;19924;-69
2023/01/13 12:30:16;;;;;;;;;;;23.20;43.20;;;;;;5093901;28;19920;-70
2023/01/13 12:32:42;;;;;;;;;;;23.20;43.30;;;;;;5085156;28;20638;-69
2023/01/13 12:38:11;;;;;;;;;;;23.40;43.00;;;;;;5053426;28;19927;-68
2023/01/13 12:40:50;;;;;;;;;;;23.30;42.90;;;;;;5043264;28;20380;-68
2023/01/13 12:46:22;;;;;;;;;;;23.10;43.00;;;;;;5033630;28;19936;-72
2023/01/13 12:51:32;;;;;;;;;;;23.00;43.40;;;;;;5142432;27;20316;-68
2023/01/13 12:53:59;;;;;;;;;;;23.00;43.50;;;;;;5109074;27;20010;-68
2023/01/13 13:04:48;;;;;;;;;;;22.60;43.70;;;;;;5089368;27;1867733;-67
2023/01/13 13:07:25;;;;;;;;;;;22.50;43.90;;;;;;5113039;27;20290;-69
2023/01/13 13:09:56;;;;;;;;;;;22.40;44.10;;;;;;5123946;27;19931;-69
2023/01/13 13:15:18;;;;;;;;;;;22.30;44.40;;;;;;5084658;27;19924;-67
2023/01/13 13:17:59;;;;;;;;;;;22.30;44.30;;;;;;5087167;28;19958;-68
2023/01/13 13:20:44;;;;;;;;;;;22.40;44.60;;;;;;5115780;27;19924;-70
2023/01/13 13:23:36;;;;;;;;;;;22.40;44.10;;;;;;5117209;27;19924;-67
2023/01/13 13:51:19;;;;;;;;;;;22.70;42.50;;;;;;5077781;27;19917;-68
2023/01/13 13:53:45;;;;;;;;;;;22.70;42.70;;;;;;5064634;28;19928;-68
2023/01/13 13:56:15;;;;;;;;;;;22.50;42.90;;;;;;5063534;28;19921;-69
2023/01/13 13:58:41;;;;;;;;;;;22.50;43.10;;;;;;5060627;28;20396;-67
2023/01/13 14:01:16;;;;;;;;;;;22.40;43.10;;;;;;5066778;28;19932;-70
2023/01/13 14:03:45;;;;;;;;;;;22.50;43.20;;;;;;5098009;28;20005;-70
2023/01/13 14:06:18;;;;;;;;;;;22.50;43.10;;;;;;5072898;28;19924;-69
2023/01/13 14:08:48;;;;;;;;;;;22.60;43.10;;;;;;5076233;28;19928;-69
2023/01/13 14:11:31;;;;;;;;;;;22.40;42.80;;;;;;5071371;28;20318;-69
2023/01/13 14:14:01;;;;;;;;;;;22.20;42.80;;;;;;5078005;28;20409;-69
2023/01/13 14:16:27;;;;;;;;;;;22.10;42.70;;;;;;5076735;28;20008;-70
2023/01/13 14:18:55;;;;;;;;;;;22.10;42.60;;;;;;5073067;28;20354;-69
2023/01/13 14:21:24;;;;;;;;;;;22.10;42.30;;;;;;5076123;28;19921;-70
2023/01/13 14:26:30;;;;;;;;;;;22.30;41.70;;;;;;5114368;27;1868672;-68
2023/01/13 14:28:57;;;;;;;;;;;22.30;41.40;;;;;;5143454;27;19925;-68
2023/01/13 14:31:23;;;;;;;;;;;22.40;41.20;;;;;;5143655;27;19919;-68
2023/01/13 14:33:50;;;;;;;;;;;22.50;41.10;;;;;;5142942;27;19926;-68
2023/01/13 14:36:19;;;;;;;;;;;22.80;41.00;;;;;;5142949;27;19984;-70
2023/01/13 14:38:46;;;;;;;;;;;23.10;40.60;;;;;;5145393;27;19926;-69
2023/01/13 14:41:16;;;;;;;;;;;23.20;39.90;;;;;;5140998;27;19959;-69
2023/01/13 14:43:43;;;;;;;;;;;23.20;39.60;;;;;;5141465;27;19923;-69
2023/01/13 14:46:09;;;;;;;;;;;23.20;39.60;;;;;;5142317;27;19967;-69
2023/01/13 14:48:35;;;;;;;;;;;23.20;39.60;;;;;;5148047;27;19955;-70
2023/01/13 14:51:03;;;;;;;;;;;23.10;39.60;;;;;;5140378;27;19919;-68
2023/01/13 14:53:45;;;;;;;;;;;22.90;39.90;;;;;;5159850;27;20290;-68
2023/01/13 14:56:31;;;;;;;;;;;22.70;40.30;;;;;;5156636;27;19919;-71
2023/01/13 14:59:00;;;;;;;;;;;22.60;40.50;;;;;;5142226;27;19954;-68
2023/01/13 15:07:03;;;;;;;;;;;22.60;40.40;;;;;;5084060;27;20419;-69
2023/01/13 15:09:36;;;;;;;;;;;22.70;40.20;;;;;;5081542;28;19921;-71
2023/01/13 15:12:22;;;;;;;;;;;22.70;40.20;;;;;;5080985;28;20313;-70
2023/01/13 15:14:48;;;;;;;;;;;22.60;40.30;;;;;;5082341;28;19921;-69
2023/01/13 15:17:15;;;;;;;;;;;22.60;40.60;;;;;;5078398;28;20615;-69
2023/01/13 15:19:40;;;;;;;;;;;22.60;40.60;;;;;;5075705;28;19921;-69
2023/01/13 15:22:06;;;;;;;;;;;22.60;40.50;;;;;;5081575;28;19924;-70
2023/01/13 15:24:31;;;;;;;;;;;22.60;40.50;;;;;;5080163;28;19921;-68
2023/01/13 15:26:57;;;;;;;;;;;22.60;40.50;;;;;;5112872;28;19967;-69
2023/01/13 15:29:22;;;;;;;;;;;22.60;40.50;;;;;;5074492;28;19971;-70
2023/01/13 15:31:48;;;;;;;;;;;22.50;40.40;;;;;;5076160;28;19928;-69
2023/01/13 15:34:13;;;;;;;;;;;22.50;40.50;;;;;;5111015;28;19963;-69
2023/01/13 15:36:39;;;;;;;;;;;22.50;40.60;;;;;;5079771;28;19995;-68
2023/01/13 15:39:05;;;;;;;;;;;22.40;40.60;;;;;;5080240;28;20004;-69
2023/01/13 15:47:04;;;;;;;;;;;22.00;41.10;;;;;;5079747;28;20283;-69
2023/01/13 15:49:33;;;;;;;;;;;21.90;41.50;;;;;;5114675;27;19928;-69
2023/01/13 15:52:01;;;;;;;;;;;21.80;41.80;;;;;;5082410;28;19920;-69
2023/01/13 15:54:27;;;;;;;;;;;21.60;42.00;;;;;;5086316;28;19920;-68
2023/01/13 15:56:53;;;;;;;;;;;21.50;42.30;;;;;;5084889;28;19921;-71
2023/01/13 15:59:20;;;;;;;;;;;21.40;42.50;;;;;;5085870;28;20035;-71
2023/01/13 16:01:46;;;;;;;;;;;21.20;42.70;;;;;;5084391;28;20468;-70
2023/01/13 16:04:11;;;;;;;;;;;21.10;43.00;;;;;;5085785;28;19920;-71
2023/01/13 16:06:37;;;;;;;;;;;21.00;43.20;;;;;;5082635;28;19928;-71
2023/01/13 16:09:03;;;;;;;;;;;21.00;43.40;;;;;;5083487;28;20143;-71
2023/01/13 16:11:28;;;;;;;;;;;20.90;43.40;;;;;;5081321;28;20371;-72
2023/01/13 16:13:54;;;;;;;;;;;20.80;43.50;;;;;;5085094;28;19931;-71
2023/01/13 16:16:22;;;;;;;;;;;20.90;43.70;;;;;;5091690;28;19925;-71
2023/01/13 16:18:48;;;;;;;;;;;20.80;43.70;;;;;;5084590;28;19946;-71
2023/01/13 16:21:13;;;;;;;;;;;20.80;43.70;;;;;;5076491;28;20381;-71
2023/01/13 16:23:39;;;;;;;;;;;20.80;43.70;;;;;;5105675;28;19921;-71
2023/01/13 16:26:05;;;;;;;;;;;20.70;43.70;;;;;;5072930;28;19924;-71
2023/01/13 16:28:34;;;;;;;;;;;20.70;43.80;;;;;;5086118;28;19928;-72
2023/01/13 16:31:13;;;;;;;;;;;20.70;43.90;;;;;;5069494;28;19920;-71
2023/01/13 16:33:39;;;;;;;;;;;20.70;44.00;;;;;;5072395;28;19924;-71
2023/01/13 16:36:09;;;;;;;;;;;20.60;44.10;;;;;;5071211;28;19920;-71
2023/01/13 16:38:35;;;;;;;;;;;20.60;44.20;;;;;;5074185;28;19925;-71
2023/01/13 16:41:01;;;;;;;;;;;20.50;44.30;;;;;;5074203;28;19921;-71
2023/01/13 16:43:26;;;;;;;;;;;20.50;44.40;;;;;;5073150;28;19927;-71
2023/01/13 16:45:52;;;;;;;;;;;20.40;44.40;;;;;;5072845;28;19998;-71
2023/01/13 16:48:18;;;;;;;;;;;20.40;44.50;;;;;;5074237;28;19921;-71
2023/01/13 16:50:47;;;;;;;;;;;20.30;44.70;;;;;;5073908;28;19932;-71
2023/01/13 16:53:13;;;;;;;;;;;20.30;44.80;;;;;;5072650;28;19927;-71
2023/01/13 16:55:39;;;;;;;;;;;20.20;44.90;;;;;;5072673;28;19920;-71
2023/01/13 16:58:05;;;;;;;;;;;20.20;45.00;;;;;;5073801;28;20042;-71
2023/01/13 17:00:32;;;;;;;;;;;20.10;45.10;;;;;;5072678;28;19964;-71
2023/01/13 17:02:59;;;;;;;;;;;20.10;45.20;;;;;;5072785;28;19970;-71
2023/01/13 17:05:25;;;;;;;;;;;20.00;45.20;;;;;;5072155;28;19935;-70
2023/01/13 17:07:51;;;;;;;;;;;20.00;45.40;;;;;;5072843;28;20291;-70
2023/01/13 17:10:19;;;;;;;;;;;19.90;45.40;;;;;;5106459;28;19920;-71